Time;durP1;ratioP1;P1;durP2;ratioP2;P2;SDS_P1;SDS_P2;PMS_P1;PMS_P2;Temp;Humidity;BMP_temperature;BMP_pressure;BME280_temperature;BME280_humidity;BME280_pressure;Samples;Min_cycle;Max_cycle;Signal;HPM_P1;HPM_P2
2022/09/01 00:00:12;;;;;;;35.33;32.63;;;;;;;23.05;100.00;100813.28;5022025;28;20399;-77
2022/09/01 00:02:39;;;;;;;37.15;34.72;;;;;;;23.15;100.00;100808.84;5037736;28;20437;-77
2022/09/01 00:05:08;;;;;;;39.83;37.05;;;;;;;23.15;100.00;100808.84;5027575;28;20049;-78
2022/09/01 00:07:35;;;;;;;35.55;33.08;;;;;;;22.90;100.00;100812.59;5027380;28;20049;-77
2022/09/01 00:10:06;;;;;;;35.15;32.10;;;;;;;23.01;100.00;100822.28;5026801;28;20054;-77
2022/09/01 00:12:33;;;;;;;34.78;31.60;;;;;;;23.03;100.00;100817.41;5032164;28;20102;-80
2022/09/01 00:15:01;;;;;;;34.85;32.42;;;;;;;23.00;100.00;100817.97;5021885;28;20458;-80
2022/09/01 00:17:28;;;;;;;41.10;37.88;;;;;;;23.13;100.00;100816.47;5029424;28;20042;-77
2022/09/01 00:19:55;;;;;;;39.72;37.13;;;;;;;22.98;100.00;100812.81;5033696;28;20045;-77
2022/09/01 00:22:22;;;;;;;37.03;34.53;;;;;;;23.04;100.00;100806.25;5026417;28;20057;-78
2022/09/01 00:24:49;;;;;;;36.97;34.55;;;;;;;22.97;100.00;100811.22;5028809;28;20501;-77
2022/09/01 00:27:17;;;;;;;36.22;33.75;;;;;;;22.95;100.00;100805.28;5033010;28;20056;-77
2022/09/01 00:29:44;;;;;;;34.75;32.58;;;;;;;23.04;100.00;100803.56;5029513;28;20045;-77
2022/09/01 00:32:13;;;;;;;42.65;39.72;;;;;;;23.13;100.00;100795.59;5028849;28;20433;-80
2022/09/01 00:34:41;;;;;;;38.38;35.50;;;;;;;23.03;100.00;100804.66;5031319;28;20060;-79
2022/09/01 00:37:08;;;;;;;39.80;37.45;;;;;;;23.20;100.00;100801.47;5025756;28;20046;-79
2022/09/01 00:39:35;;;;;;;36.75;34.30;;;;;;;23.24;100.00;100797.13;5037158;28;20068;-77
2022/09/01 00:42:04;;;;;;;42.92;40.38;;;;;;;23.15;100.00;100798.84;5033688;28;20045;-80
2022/09/01 00:44:31;;;;;;;34.88;32.50;;;;;;;23.18;100.00;100797.44;5023769;28;20057;-78
2022/09/01 00:46:59;;;;;;;36.80;34.45;;;;;;;23.23;100.00;100794.69;5042450;28;20133;-77
2022/09/01 00:49:32;;;;;;;37.13;34.63;;;;;;;23.26;100.00;100805.72;5030716;28;20055;-77
2022/09/01 00:52:04;;;;;;;33.88;31.77;;;;;;;23.18;100.00;100800.97;5026548;28;20049;-78
2022/09/01 00:54:34;;;;;;;36.90;34.45;;;;;;;23.12;100.00;100815.66;5028782;28;20062;-81
2022/09/01 00:57:02;;;;;;;39.35;37.05;;;;;;;22.97;100.00;100813.94;5021136;28;20148;-81
2022/09/01 00:59:30;;;;;;;38.13;35.70;;;;;;;23.03;100.00;100812.78;5030563;28;20046;-77
2022/09/01 01:01:58;;;;;;;35.40;33.13;;;;;;;23.02;100.00;100819.28;5036676;28;20041;-80
2022/09/01 01:04:25;;;;;;;38.53;36.05;;;;;;;23.12;100.00;100821.09;5030980;28;20494;-81
2022/09/01 01:07:00;;;;;;;39.22;36.03;;;;;;;23.08;100.00;100807.28;5028874;28;20056;-81
2022/09/01 01:09:32;;;;;;;38.65;36.05;;;;;;;23.04;100.00;100816.28;5041072;28;20045;-81
2022/09/01 01:12:00;;;;;;;34.97;32.63;;;;;;;23.09;100.00;100822.47;5024380;28;20046;-81
2022/09/01 01:14:31;;;;;;;34.00;31.50;;;;;;;23.07;100.00;100813.81;5035170;28;20042;-77
2022/09/01 01:16:59;;;;;;;35.85;33.40;;;;;;;23.01;100.00;100816.88;5035195;28;20135;-81
2022/09/01 01:25:17;;;;;;;37.05;34.58;;;;;;;22.61;100.00;100810.72;5030335;28;20048;-77
2022/09/01 01:27:45;;;;;;;38.65;36.03;;;;;;;22.75;100.00;100808.13;5041266;28;20077;-80
2022/09/01 01:30:16;;;;;;;38.67;36.08;;;;;;;22.62;100.00;100815.03;5029117;28;20053;-77
2022/09/01 01:32:46;;;;;;;37.60;35.10;;;;;;;22.91;100.00;100808.81;5035367;28;20057;-77
2022/09/01 01:35:20;;;;;;;39.45;37.15;;;;;;;22.85;100.00;100810.75;5030093;28;20057;-78
2022/09/01 01:37:48;;;;;;;38.63;36.22;;;;;;;22.78;100.00;100815.69;5030511;28;20495;-80
2022/09/01 01:40:19;;;;;;;46.38;43.47;;;;;;;22.95;100.00;100809.88;5032912;28;20068;-77
2022/09/01 01:42:47;;;;;;;37.05;34.60;;;;;;;22.79;100.00;100814.63;5035468;28;20049;-78
2022/09/01 01:45:16;;;;;;;40.85;38.15;;;;;;;22.89;100.00;100814.50;5028652;28;20052;-80
2022/09/01 01:47:46;;;;;;;37.28;34.67;;;;;;;22.82;100.00;100808.63;5039170;28;20134;-80
2022/09/01 01:50:14;;;;;;;37.40;34.83;;;;;;;22.75;100.00;100813.56;5025358;28;20054;-77
2022/09/01 01:52:41;;;;;;;38.05;35.30;;;;;;;22.93;100.00;100810.13;5031984;28;20140;-81
2022/09/01 01:55:11;;;;;;;35.42;33.03;;;;;;;22.96;100.00;100817.72;5027654;28;20485;-76
2022/09/01 01:57:40;;;;;;;37.97;35.05;;;;;;;22.70;100.00;100817.13;5023384;28;20123;-80
2022/09/01 02:03:00;;;;;;;35.50;32.97;;;;;;;22.49;100.00;100823.81;5078598;23;20087;-81
2022/09/01 02:05:39;;;;;;;34.13;31.67;;;;;;;22.64;100.00;100826.38;5031090;28;20129;-80
2022/09/01 02:08:21;;;;;;;39.97;37.20;;;;;;;22.68;100.00;100835.53;5031758;28;20045;-79
2022/09/01 02:11:02;;;;;;;41.28;38.78;;;;;;;22.63;100.00;100831.00;5034358;28;20049;-80
2022/09/01 02:13:31;;;;;;;38.58;36.13;;;;;;;22.65;100.00;100838.81;5029850;28;20129;-76
2022/09/01 02:16:10;;;;;;;41.55;38.95;;;;;;;22.69;100.00;100837.16;5034325;28;20049;-79
2022/09/01 02:18:43;;;;;;;38.58;36.10;;;;;;;22.59;100.00;100831.84;5032963;28;20048;-76
2022/09/01 02:21:12;;;;;;;;;;;;;;;22.64;100.00;100829.09;5030798;28;20055;-76
2022/09/01 02:23:42;;;;;;;41.10;38.03;;;;;;;22.38;100.00;100821.16;5032969;28;19921;-77
2022/09/01 02:26:10;;;;;;;42.92;40.33;;;;;;;22.25;100.00;100832.63;5031678;28;20064;-77
2022/09/01 02:28:42;;;;;;;40.20;37.50;;;;;;;22.32;100.00;100833.13;5026743;28;20053;-81
2022/09/01 02:31:15;;;;;;;38.58;36.03;;;;;;;22.32;100.00;100826.91;5032164;28;20055;-80
2022/09/01 02:33:45;;;;;;;43.58;40.88;;;;;;;21.98;100.00;100841.16;5032163;28;20371;-80
2022/09/01 02:36:23;;;;;;;42.83;40.13;;;;;;;21.50;100.00;100833.53;5032013;28;20056;-77
2022/09/01 02:39:01;;;;;;;43.90;41.00;;;;;;;21.61;100.00;100839.72;5032867;28;20049;-78
2022/09/01 02:41:33;;;;;;;47.63;44.25;;;;;;;21.39;100.00;100847.34;5034272;28;20448;-81
2022/09/01 02:44:21;;;;;;;53.22;50.17;;;;;;;21.68;100.00;100845.63;5027334;28;20050;-76
2022/09/01 02:47:10;;;;;;;50.60;47.22;;;;;;;21.83;100.00;100831.22;5031439;28;20239;-80
2022/09/01 02:49:59;;;;;;;58.75;55.55;;;;;;;21.93;100.00;100833.88;5032492;28;20385;-80
2022/09/01 02:52:34;;;;;;;51.00;47.70;;;;;;;21.86;100.00;100833.38;5023751;28;20050;-81
2022/09/01 02:55:04;;;;;;;45.78;42.75;;;;;;;21.87;100.00;100834.97;5030746;28;20049;-80
2022/09/01 02:57:34;;;;;;;47.60;44.63;;;;;;;21.66;100.00;100819.94;5032735;28;20076;-81
2022/09/01 03:00:19;;;;;;;43.60;40.53;;;;;;;21.72;100.00;100821.53;5031493;28;20069;-80
2022/09/01 03:02:59;;;;;;;45.08;42.08;;;;;;;21.73;100.00;100832.09;5030244;28;20050;-80
2022/09/01 03:05:34;;;;;;;43.92;41.22;;;;;;;21.08;100.00;100833.09;5027233;28;20506;-77
2022/09/01 03:08:09;;;;;;;49.70;46.05;;;;;;;20.93;100.00;100840.13;5031444;28;20052;-78
2022/09/01 03:10:40;;;;;;;47.67;44.58;;;;;;;20.61;100.00;100848.50;5027487;28;20510;-80
2022/09/01 03:13:13;;;;;;;46.03;41.53;;;;;;;20.41;100.00;100854.66;5026809;28;20171;-79
2022/09/01 03:15:45;;;;;;;47.15;43.95;;;;;;;20.35;100.00;100848.44;5025400;28;20049;-78
2022/09/01 03:18:18;;;;;;;44.75;41.95;;;;;;;20.79;100.00;100850.66;5024094;28;20057;-78
2022/09/01 03:20:55;;;;;;;44.15;41.13;;;;;;;21.19;100.00;100853.59;5022293;28;20058;-79
2022/09/01 03:23:26;;;;;;;42.92;39.95;;;;;;;21.11;100.00;100846.03;5029220;28;20053;-78
2022/09/01 03:25:59;;;;;;;44.60;41.53;;;;;;;20.96;100.00;100842.28;5028705;28;20774;-79
2022/09/01 03:28:30;;;;;;;50.67;47.17;;;;;;;20.99;100.00;100849.03;5027085;28;20041;-78
2022/09/01 03:31:11;;;;;;;48.83;45.33;;;;;;;20.76;100.00;100859.31;5023918;28;20060;-79
2022/09/01 03:33:45;;;;;;;44.97;41.30;;;;;;;20.69;100.00;100861.44;5025636;28;20056;-78
2022/09/01 03:36:22;;;;;;;41.17;38.03;;;;;;;20.21;100.00;100862.72;5029200;28;20084;-81
2022/09/01 03:38:50;;;;;;;42.53;39.30;;;;;;;20.64;100.00;100869.56;5024497;28;20045;-81
2022/09/01 03:41:20;;;;;;;46.97;43.88;;;;;;;20.76;100.00;100858.50;5031285;28;20128;-78
2022/09/01 03:43:47;;;;;;;44.63;41.38;;;;;;;20.92;100.00;100860.09;5032182;28;20049;-79
2022/09/01 03:46:20;;;;;;;37.80;35.10;;;;;;;20.75;100.00;100867.66;5028260;28;20053;-78
2022/09/01 03:48:49;;;;;;;41.88;37.97;;;;;;;20.93;100.00;100877.09;5023017;28;20136;-78
2022/09/01 03:51:17;;;;;;;39.65;36.55;;;;;;;21.00;100.00;100867.66;5030554;28;20103;-78
2022/09/01 03:53:44;;;;;;;40.28;37.15;;;;;;;21.11;100.00;100864.94;5032336;28;20053;-78
2022/09/01 03:56:12;;;;;;;44.97;41.83;;;;;;;21.10;100.00;100856.03;5033209;28;20045;-85
2022/09/01 03:58:42;;;;;;;44.25;41.05;;;;;;;21.16;100.00;100854.94;5032463;28;20049;-79
2022/09/01 04:01:11;;;;;;;36.67;33.97;;;;;;;21.03;100.00;100855.50;5028134;28;20061;-78
2022/09/01 04:03:41;;;;;;;34.83;32.33;;;;;;;21.04;100.00;100860.63;5029414;28;20375;-83
2022/09/01 04:06:09;;;;;;;37.95;35.17;;;;;;;20.98;100.00;100852.81;5029033;28;20099;-81
2022/09/01 04:08:37;;;;;;;42.17;38.55;;;;;;;21.01;100.00;100849.56;5030680;28;20056;-79
2022/09/01 04:11:12;;;;;;;37.55;34.90;;;;;;;20.83;100.00;100850.94;5028669;28;20536;-79
2022/09/01 04:13:41;;;;;;;35.78;33.08;;;;;;;20.93;100.00;100855.50;5027384;28;20061;-79
2022/09/01 04:19:14;;;;;;;35.55;32.42;;;;;;;20.98;100.00;100853.63;5028835;28;20401;-78
2022/09/01 04:21:43;;;;;;;36.00;33.30;;;;;;;21.12;100.00;100853.88;5026227;28;20057;-79
2022/09/01 04:24:12;;;;;;;35.50;32.80;;;;;;;21.23;100.00;100850.06;5032289;28;20104;-81
2022/09/01 04:26:39;;;;;;;35.65;32.97;;;;;;;21.34;100.00;100852.75;5031155;28;20050;-77
2022/09/01 04:29:08;;;;;;;34.13;31.27;;;;;;;21.35;100.00;100854.34;5032411;28;20049;-80
2022/09/01 04:31:39;;;;;;;36.15;33.17;;;;;;;21.33;100.00;100856.50;5031157;28;20060;-79
2022/09/01 04:34:12;;;;;;;36.75;33.75;;;;;;;21.41;100.00;100858.69;5030415;28;20060;-81
2022/09/01 04:36:40;;;;;;;36.70;34.30;;;;;;;21.41;100.00;100859.50;5028257;28;20128;-79
2022/09/01 04:39:09;;;;;;;40.58;37.72;;;;;;;21.21;100.00;100857.63;5028311;28;20057;-79
2022/09/01 04:41:38;;;;;;;40.55;37.47;;;;;;;21.32;100.00;100855.72;5024562;28;20053;-81
2022/09/01 04:44:06;;;;;;;39.15;36.45;;;;;;;21.48;100.00;100862.72;5027891;28;20053;-79
2022/09/01 04:46:37;;;;;;;36.42;33.90;;;;;;;21.22;100.00;100864.66;5029114;28;20505;-82
2022/09/01 04:49:09;;;;;;;36.47;33.70;;;;;;;21.35;100.00;100870.56;5026106;28;20045;-81
2022/09/01 04:51:39;;;;;;;33.90;31.35;;;;;;;21.70;100.00;100875.09;5023534;28;20054;-83
2022/09/01 04:54:11;;;;;;;34.88;32.20;;;;;;;21.77;100.00;100880.19;5030090;28;20053;-79
2022/09/01 04:56:38;;;;;;;36.65;33.40;;;;;;;21.62;100.00;100867.53;5026595;28;20049;-81
2022/09/01 04:59:06;;;;;;;38.00;35.20;;;;;;;21.78;100.00;100873.69;5028519;28;20111;-79
2022/09/01 05:01:41;;;;;;;34.53;32.03;;;;;;;21.63;100.00;100867.25;5030655;28;20057;-81
2022/09/01 05:04:11;;;;;;;34.45;32.15;;;;;;;21.79;100.00;100861.81;5025901;28;20056;-81
2022/09/01 05:06:42;;;;;;;34.63;32.15;;;;;;;21.65;100.00;100865.09;5030223;28;20116;-81
2022/09/01 05:09:11;;;;;;;35.05;32.28;;;;;;;22.03;100.00;100867.34;5029759;28;20069;-81
2022/09/01 05:11:45;;;;;;;35.88;33.40;;;;;;;21.85;100.00;100869.63;5028733;28;20474;-79
2022/09/01 05:14:24;;;;;;;40.15;37.45;;;;;;;21.85;100.00;100864.22;5029998;28;20049;-81
2022/09/01 05:16:57;;;;;;;35.72;33.30;;;;;;;21.85;100.00;100858.81;5027894;28;20397;-79
2022/09/01 05:19:27;;;;;;;34.85;32.50;;;;;;;21.67;100.00;100867.53;5031345;28;20046;-78
2022/09/01 05:21:56;;;;;;;34.47;31.88;;;;;;;21.84;100.00;100859.88;5029316;28;20474;-80
2022/09/01 05:24:28;;;;;;;31.50;29.30;;;;;;;21.65;100.00;100867.00;5030301;28;20529;-80
2022/09/01 05:26:57;;;;;;;35.03;32.60;;;;;;;21.88;100.00;100860.94;5031316;28;20379;-80
2022/09/01 05:29:26;;;;;;;39.78;36.47;;;;;;;22.01;100.00;100864.13;5029686;28;20132;-80
2022/09/01 05:31:55;;;;;;;38.42;35.53;;;;;;;22.26;100.00;100860.50;5030084;28;20045;-77
2022/09/01 05:34:25;;;;;;;34.83;32.53;;;;;;;22.28;100.00;100855.63;5029371;28;20107;-77
2022/09/01 05:36:56;;;;;;;41.88;39.22;;;;;;;22.42;100.00;100862.00;5028663;28;20045;-78
2022/09/01 05:39:23;;;;;;;39.47;37.00;;;;;;;21.76;100.00;100856.97;5029967;28;20054;-78
2022/09/01 05:41:52;;;;;;;37.17;34.30;;;;;;;22.20;100.00;100851.59;5026456;28;20057;-78
2022/09/01 05:44:21;;;;;;;34.47;31.92;;;;;;;22.15;100.00;100848.91;5031206;28;20053;-81
2022/09/01 05:46:49;;;;;;;33.45;31.15;;;;;;;22.53;100.00;100850.00;5031924;28;20050;-80
2022/09/01 05:49:17;;;;;;;46.22;39.20;;;;;;;22.49;100.00;100838.16;5029156;28;20041;-81
2022/09/01 05:51:48;;;;;;;36.90;34.55;;;;;;;22.33;100.00;100840.16;5027511;28;20065;-81
2022/09/01 05:54:17;;;;;;;34.17;31.38;;;;;;;22.80;100.00;100838.69;5031776;28;20409;-79
2022/09/01 05:56:44;;;;;;;31.83;29.33;;;;;;;22.91;100.00;100830.47;5033619;28;20045;-78
2022/09/01 05:59:12;;;;;;;30.17;28.08;;;;;;;22.72;100.00;100838.50;5034141;28;20045;-78
2022/09/01 06:01:39;;;;;;;36.92;34.08;;;;;;;22.84;100.00;100842.47;5030846;28;20061;-80
2022/09/01 06:04:08;;;;;;;34.28;31.75;;;;;;;23.29;100.00;100840.38;5029656;28;20195;-82
2022/09/01 06:06:39;;;;;;;36.63;34.05;;;;;;;23.62;100.00;100850.59;5035004;28;20486;-79
2022/09/01 06:09:09;;;;;;;32.28;29.88;;;;;;;23.68;100.00;100842.09;5032216;28;20042;-80
2022/09/01 06:11:37;;;;;;;34.22;32.05;;;;;;;23.72;100.00;100843.19;5032111;28;20049;-78
2022/09/01 06:14:04;;;;;;;35.53;33.22;;;;;;;23.74;100.00;100848.28;5034862;28;20053;-81
2022/09/01 06:16:31;;;;;;;36.22;33.65;;;;;;;23.45;100.00;100857.31;5032763;28;20072;-81
2022/09/01 06:18:59;;;;;;;35.40;33.08;;;;;;;23.44;100.00;100852.97;5028859;28;20527;-77
2022/09/01 06:21:27;;;;;;;36.42;33.47;;;;;;;23.80;100.00;100849.84;5033553;28;20049;-78
2022/09/01 06:23:57;;;;;;;34.75;32.45;;;;;;;23.88;100.00;100849.19;5033434;28;20393;-79
2022/09/01 06:26:27;;;;;;;32.65;30.55;;;;;;;24.17;100.00;100856.38;5030123;28;20046;-78
2022/09/01 06:28:58;;;;;;;34.17;31.85;;;;;;;24.17;100.00;100859.09;5029809;28;20549;-78
2022/09/01 06:31:32;;;;;;;32.95;30.13;;;;;;;24.28;100.00;100857.84;5034124;28;20124;-77
2022/09/01 06:34:02;;;;;;;31.30;28.75;;;;;;;24.45;100.00;100851.94;5028448;28;20045;-81
2022/09/01 06:36:31;;;;;;;35.17;32.38;;;;;;;24.23;100.00;100866.88;5030452;28;20402;-78
2022/09/01 06:39:00;;;;;;;31.73;29.08;;;;;;;24.01;100.00;100866.66;5033191;28;20107;-78
2022/09/01 06:41:27;;;;;;;31.58;29.05;;;;;;;24.30;100.00;100863.81;5030908;28;20049;-81
2022/09/01 06:43:55;;;;;;;30.88;28.77;;;;;;;24.56;100.00;100866.94;5030508;28;20444;-80
2022/09/01 06:46:26;;;;;;;28.75;26.85;;;;;;;24.40;100.00;100876.41;5031159;28;20041;-80
2022/09/01 06:48:55;;;;;;;29.73;27.63;;;;;;;24.47;100.00;100866.00;5029636;28;20048;-78
2022/09/01 06:51:23;;;;;;;31.90;29.60;;;;;;;24.15;100.00;100867.53;5031765;28;20049;-78
2022/09/01 06:53:55;;;;;;;29.98;27.73;;;;;;;24.16;100.00;100876.50;5032020;28;20050;-78
2022/09/01 06:56:23;;;;;;;31.90;29.43;;;;;;;24.23;100.00;100877.72;5031036;28;20049;-78
2022/09/01 06:58:52;;;;;;;30.33;28.33;;;;;;;24.82;100.00;100880.13;5034030;28;20495;-82
2022/09/01 07:01:22;;;;;;;28.40;26.17;;;;;;;24.58;100.00;100877.53;5030685;28;20053;-79
2022/09/01 07:03:52;;;;;;;28.40;26.30;;;;;;;24.72;100.00;100877.56;5029275;28;20465;-78
2022/09/01 07:06:22;;;;;;;29.95;27.95;;;;;;;25.47;100.00;100879.22;5033316;28;20133;-78
2022/09/01 07:08:49;;;;;;;29.77;27.85;;;;;;;25.25;100.00;100874.50;5032556;28;20459;-81
2022/09/01 07:11:26;;;;;;;30.50;27.90;;;;;;;25.45;100.00;100876.03;5034191;28;20137;-81
2022/09/01 07:13:54;;;;;;;30.77;28.73;;;;;;;25.10;100.00;100872.84;5030287;28;20049;-81
2022/09/01 07:16:25;;;;;;;35.58;32.88;;;;;;;25.26;100.00;100868.75;5026877;28;20116;-81
2022/09/01 07:18:55;;;;;;;33.40;31.10;;;;;;;25.65;100.00;100870.16;5028101;28;20057;-80
2022/09/01 07:33:02;;;;;;;37.00;34.63;;;;;;;26.62;100.00;100864.50;5077197;27;20459;-80
2022/09/01 07:35:30;;;;;;;37.33;35.00;;;;;;;26.74;100.00;100867.47;5068441;28;20109;-81
2022/09/01 07:37:56;;;;;;;37.03;34.67;;;;;;;26.91;100.00;100862.13;5070954;28;20053;-83
2022/09/01 07:40:27;;;;;;;35.53;33.45;;;;;;;27.18;100.00;100866.63;5062980;28;20051;-79
2022/09/01 07:42:56;;;;;;;36.67;34.45;;;;;;;27.50;100.00;100874.75;5073817;28;20040;-82
2022/09/01 07:45:24;;;;;;;43.03;40.00;;;;;;;27.18;100.00;100869.34;5069769;28;20056;-81
2022/09/01 07:47:52;;;;;;;37.70;34.85;;;;;;;27.42;100.00;100868.16;5070687;28;20083;-82
2022/09/01 07:50:23;;;;;;;46.00;42.38;;;;;;;26.68;100.00;100855.88;5067801;28;20053;-79
2022/09/01 07:52:50;;;;;;;34.80;32.45;;;;;;;27.43;100.00;100853.41;5074239;28;20075;-78
2022/09/01 07:55:17;;;;;;;34.47;32.10;;;;;;;26.75;100.00;100858.19;5067506;28;20055;-78
2022/09/01 07:57:45;;;;;;;40.33;37.15;;;;;;;26.35;100.00;100857.22;5066755;28;20122;-83
2022/09/01 08:00:15;;;;;;;46.38;41.95;;;;;;;27.00;100.00;100858.66;5061932;28;20179;-82
2022/09/01 08:02:43;;;;;;;48.22;43.30;;;;;;;27.31;100.00;100851.28;5057521;28;20404;-80
2022/09/01 08:05:13;;;;;;;46.58;41.83;;;;;;;27.08;100.00;100846.97;5055531;28;20135;-77
2022/09/01 08:07:42;;;;;;;38.95;35.70;;;;;;;27.73;100.00;100845.44;5060095;28;20490;-80
2022/09/01 08:10:09;;;;;;;36.75;33.85;;;;;;;27.36;100.00;100853.88;5060770;28;20129;-80
2022/09/01 08:12:37;;;;;;;39.88;36.95;;;;;;;27.41;100.00;100850.19;5059980;28;20440;-79
2022/09/01 08:15:05;;;;;;;33.08;30.80;;;;;;;27.12;100.00;100843.31;5055287;28;20053;-80
2022/09/01 08:17:32;;;;;;;33.00;30.90;;;;;;;28.19;100.00;100838.59;5052327;28;20131;-79
2022/09/01 08:20:00;;;;;;;35.58;33.17;;;;;;;27.51;100.00;100836.25;5051723;28;20131;-77
2022/09/01 08:22:27;;;;;;;32.33;30.17;;;;;;;27.86;100.00;100841.81;5059689;28;20064;-78
2022/09/01 08:24:56;;;;;;;31.08;28.83;;;;;;;28.26;100.00;100834.28;5061175;28;20040;-77
2022/09/01 08:27:23;;;;;;;32.65;30.52;;;;;;;28.81;100.00;100830.03;5062390;28;20497;-79
2022/09/01 08:29:49;;;;;;;32.00;29.55;;;;;;;28.70;100.00;100826.84;5058565;28;20134;-80
2022/09/01 08:32:16;;;;;;;30.88;28.48;;;;;;;28.48;100.00;100819.66;5053196;28;20119;-78
2022/09/01 08:34:43;;;;;;;32.33;30.00;;;;;;;29.04;100.00;100816.94;5047159;28;20056;-79
2022/09/01 08:37:10;;;;;;;32.00;29.60;;;;;;;29.24;100.00;100825.56;5047813;28;20045;-80
2022/09/01 08:39:37;;;;;;;31.77;29.38;;;;;;;28.31;98.72;100812.25;5045955;28;20063;-77
2022/09/01 08:42:15;;;;;;;31.52;28.90;;;;;;;29.00;97.80;100814.03;5043545;28;20041;-82
2022/09/01 08:44:50;;;;;;;31.40;29.00;;;;;;;28.39;95.06;100815.31;5042837;28;20050;-80
2022/09/01 08:47:19;;;;;;;30.75;28.33;;;;;;;28.43;99.86;100806.16;5046246;28;20417;-79
2022/09/01 08:49:48;;;;;;;32.55;30.17;;;;;;;29.12;98.78;100801.63;5035716;28;20111;-79
2022/09/01 08:52:22;;;;;;;31.98;29.83;;;;;;;29.01;96.80;100803.91;5038405;28;20049;-79
2022/09/01 08:54:51;;;;;;;32.50;30.02;;;;;;;29.17;89.24;100801.47;5047824;28;20489;-79
2022/09/01 08:57:23;;;;;;;30.80;28.60;;;;;;;28.95;91.87;100803.28;5046986;28;20099;-77
2022/09/01 08:59:52;;;;;;;31.08;28.63;;;;;;;30.00;87.64;100792.53;5038032;28;20042;-80
2022/09/01 09:02:33;;;;;;;30.52;28.05;;;;;;;30.47;87.92;100789.56;5047495;28;20045;-80
2022/09/01 09:05:07;;;;;;;32.13;29.77;;;;;;;30.25;86.89;100781.72;5046284;28;20045;-79
2022/09/01 09:07:55;;;;;;;34.58;31.67;;;;;;;30.19;80.92;100791.25;5045794;28;20045;-76
2022/09/01 09:10:25;;;;;;;34.60;31.77;;;;;;;29.92;86.76;100798.88;5043810;28;20052;-79
2022/09/01 09:13:08;;;;;;;34.20;31.88;;;;;;;31.03;82.25;100781.66;5050615;28;20041;-79
2022/09/01 09:15:43;;;;;;;31.92;29.48;;;;;;;31.20;77.87;100777.88;5050935;28;20041;-80
2022/09/01 09:18:19;;;;;;;32.38;29.77;;;;;;;30.96;75.15;100769.66;5051076;28;20045;-78
2022/09/01 09:20:46;;;;;;;34.53;32.10;;;;;;;31.45;73.29;100773.19;5036078;28;20045;-78
2022/09/01 09:23:21;;;;;;;35.63;33.10;;;;;;;29.52;79.46;100771.16;5047752;28;20149;-79
2022/09/01 09:25:49;;;;;;;32.83;30.48;;;;;;;30.76;75.43;100774.06;5045738;28;20423;-78
2022/09/01 09:28:17;;;;;;;32.38;29.88;;;;;;;30.47;77.88;100773.13;5042093;28;20138;-78
2022/09/01 09:30:47;;;;;;;32.95;30.20;;;;;;;30.40;76.07;100777.53;5045045;28;20041;-79
2022/09/01 09:33:34;;;;;;;33.25;30.80;;;;;;;30.34;73.28;100766.78;5044786;28;20049;-78
2022/09/01 09:36:19;;;;;;;33.88;31.50;;;;;;;31.18;75.31;100766.44;5042410;28;20516;-79
2022/09/01 09:39:06;;;;;;;34.17;31.50;;;;;;;31.45;69.54;100767.69;5044425;28;20076;-78
2022/09/01 09:41:36;;;;;;;32.53;30.15;;;;;;;31.50;70.28;100755.69;5035181;28;20054;-80
2022/09/01 09:44:19;;;;;;;33.60;31.25;;;;;;;31.20;65.97;100755.94;5048071;28;20466;-78
2022/09/01 09:46:50;;;;;;;31.92;29.45;;;;;;;31.14;69.54;100756.53;5045551;28;20068;-78
2022/09/01 09:49:23;;;;;;;32.28;29.60;;;;;;;32.42;66.32;100742.94;5045476;28;20049;-77
2022/09/01 09:51:54;;;;;;;34.15;31.73;;;;;;;32.71;60.72;100746.44;5040433;28;20049;-77
2022/09/01 09:54:25;;;;;;;31.45;29.08;;;;;;;31.87;65.71;100758.31;5043207;28;20053;-80
2022/09/01 09:57:10;;;;;;;31.48;29.33;;;;;;;32.40;60.30;100748.00;5047222;28;20076;-78
2022/09/01 09:59:42;;;;;;;34.70;32.17;;;;;;;31.68;65.72;100754.25;5044160;28;20078;-78
2022/09/01 10:02:31;;;;;;;;;;;;;;;32.49;63.10;100739.59;5040772;28;20516;-81
2022/09/01 10:04:59;;;;;;;32.67;29.85;;;;;;;31.56;64.33;100745.25;5042396;28;19921;-83
2022/09/01 10:07:34;;;;;;;34.53;31.67;;;;;;;31.59;64.79;100739.06;5046877;28;20064;-77
2022/09/01 10:10:09;;;;;;;37.50;34.45;;;;;;;32.49;61.43;100729.41;5043181;28;20087;-82
2022/09/01 10:12:42;;;;;;;38.58;35.60;;;;;;;32.18;63.23;100719.16;5041090;28;20052;-80
2022/09/01 10:15:13;;;;;;;42.63;39.83;;;;;;;31.36;64.66;100725.06;5037287;28;20049;-80
2022/09/01 10:17:44;;;;;;;38.60;36.10;;;;;;;32.12;62.87;100723.31;5045012;28;20486;-78
2022/09/01 10:20:19;;;;;;;37.47;34.15;;;;;;;31.64;58.68;100728.63;5048384;28;20409;-80
2022/09/01 10:22:50;;;;;;;35.35;32.72;;;;;;;31.90;58.67;100719.22;5047934;28;20072;-81
2022/09/01 10:25:20;;;;;;;35.70;33.17;;;;;;;31.49;59.70;100730.16;5041890;28;20053;-78
2022/09/01 10:27:51;;;;;;;37.17;34.45;;;;;;;33.43;58.96;100716.66;5043265;28;20088;-78
2022/09/01 10:30:22;;;;;;;32.78;30.65;;;;;;;32.74;54.92;100720.97;5045261;28;20092;-78
2022/09/01 10:32:55;;;;;;;35.83;33.33;;;;;;;32.78;56.44;100719.91;5040343;28;20132;-78
2022/09/01 10:35:28;;;;;;;34.75;32.15;;;;;;;33.49;55.18;100717.19;5043990;28;20505;-78
2022/09/01 10:37:58;;;;;;;39.30;35.58;;;;;;;32.94;59.08;100710.84;5046523;28;20044;-81
2022/09/01 10:41:08;;;;;;;43.20;39.13;;;;;;;33.16;55.31;100709.41;5042268;28;20053;-80
2022/09/01 10:43:39;;;;;;;45.65;41.50;;;;;;;33.25;54.24;100708.03;4961271;28;20058;-79
2022/09/01 10:46:43;;;;;;;35.95;33.05;;;;;;;32.54;53.92;100700.88;4964178;28;20043;-80
2022/09/01 10:49:20;;;;;;;48.47;43.95;;;;;;;32.94;53.85;100705.34;5028328;28;20048;-77
2022/09/01 10:51:53;;;;;;;57.00;51.30;;;;;;;32.89;54.98;100702.84;5049163;28;20049;-82
2022/09/01 10:54:52;;;;;;;39.45;35.53;;;;;;;32.27;59.04;100692.31;5042109;28;20065;-80
2022/09/01 10:57:37;;;;;;;33.25;30.50;;;;;;;32.60;60.26;100699.44;5044220;28;20033;-79
2022/09/01 11:00:48;;;;;;;33.63;30.92;;;;;;;33.61;50.21;100683.22;5042784;28;20044;-80
2022/09/01 11:03:35;;;;;;;36.70;33.38;;;;;;;34.54;49.25;100679.44;5003003;28;20053;-77
2022/09/01 11:06:06;;;;;;;37.47;34.28;;;;;;;33.81;48.32;100684.03;5022539;28;20045;-77
2022/09/01 11:08:45;;;;;;;37.28;33.85;;;;;;;34.89;48.74;100676.44;5040020;28;20042;-78
2022/09/01 11:11:29;;;;;;;32.95;30.42;;;;;;;33.30;51.39;100680.22;5043825;28;20142;-78
2022/09/01 11:13:58;;;;;;;33.47;31.00;;;;;;;33.63;49.05;100680.94;5043046;28;20049;-77
2022/09/01 11:16:29;;;;;;;31.63;28.98;;;;;;;33.44;50.18;100681.69;5048194;28;20181;-78
2022/09/01 11:19:33;;;;;;;29.85;27.85;;;;;;;34.29;46.45;100662.47;5045620;28;20167;-80
2022/09/01 11:22:26;;;;;;;28.88;26.60;;;;;;;34.26;46.76;100663.22;5012776;28;20059;-78
2022/09/01 11:25:12;;;;;;;30.45;28.23;;;;;;;34.35;49.28;100659.03;5033446;28;20053;-82
2022/09/01 11:28:05;;;;;;;30.13;27.70;;;;;;;32.69;51.04;100666.28;5042180;28;20482;-78
2022/09/01 11:30:50;;;;;;;;;;;;;;;33.13;50.45;100658.63;5046614;28;20049;-79
2022/09/01 11:33:48;;;;;;;31.02;28.83;;;;;;;32.88;54.88;100657.28;5044231;28;19921;-82
2022/09/01 11:36:27;;;;;;;30.58;27.92;;;;;;;33.11;50.52;100652.72;5041249;28;20807;-81
2022/09/01 11:39:02;;;;;;;31.13;28.70;;;;;;;32.92;50.04;100655.38;5045810;28;20099;-77
2022/09/01 11:41:36;;;;;;;31.65;28.92;;;;;;;33.06;52.63;100650.25;5047558;28;20046;-79
2022/09/01 11:44:13;;;;;;;30.02;27.60;;;;;;;33.69;49.68;100646.44;5048222;28;20126;-78
2022/09/01 11:46:42;;;;;;;33.22;30.73;;;;;;;33.66;47.24;100645.19;5047107;28;20048;-80
2022/09/01 11:49:27;;;;;;;34.92;32.53;;;;;;;34.58;46.41;100634.19;5044054;28;20048;-79